Strafford, Missouri
Current Conditions -  °F | °C
As of 3:52 PM on Monday 20 Oct 2014 (Local Time) from KSGF Reporting Station
Clear Clear  
Wind Chill: 74°   Ceiling: Unl
Heat Index: 74°   Visibility: 10mi
Dew Point: 54°   Wind: 5mph
Humidity: 50%   Direction: 310°NW
Pressure: 30.01"   Gusts: NA
Location:  37.27°N, 93.12°W
Report Text: KSGF 202052Z 31004KT 10SM CLR 23/12 A3001 RMK AO2 SLP157 T02330122 56013
Loading
Personal Weather Stations






























Interactive Weather Map
Tropical Storm Tracking
New forecast layout! Learn more

10-Day Weather Forecast

Advertisements
Track Severe Weather on mobile